Time;durP1;ratioP1;P1;durP2;ratioP2;P2;SDS_P1;SDS_P2;PMS_P1;PMS_P2;Temp;Humidity;BMP_temperature;BMP_pressure;BME280_temperature;BME280_humidity;BME280_pressure;Samples;Min_cycle;Max_cycle;Signal;HPM_P1;HPM_P2
2022/07/16 00:01:25;;;;;;;;;;;;;;;19.28;45.41;101102.75;4947591;28;6784;-81
2022/07/16 00:04:01;;;;;;;;;;;;;;;19.29;45.95;101104.50;4909818;28;8510;-81
2022/07/16 00:06:28;;;;;;;;;;;;;;;19.27;45.90;101103.59;4957551;28;6988;-81
2022/07/16 00:08:55;;;;;;;;;;;;;;;19.28;45.82;101101.91;4914866;28;8964;-81
2022/07/16 00:11:22;;;;;;;;;;;;;;;19.28;45.38;101102.75;4931958;28;7034;-81
2022/07/16 00:13:48;;;;;;;;;;;;;;;19.26;45.73;101104.44;4933362;28;6956;-81
2022/07/16 00:16:14;;;;;;;;;;;;;;;19.24;45.42;101100.06;4939314;28;7284;-81
2022/07/16 00:21:25;;;;;;;;;;;;;;;19.17;45.61;101099.03;4930520;28;6785;-81
2022/07/16 00:23:51;;;;;;;;;;;;;;;19.16;46.30;101099.88;4915536;28;7056;-81
2022/07/16 00:26:18;;;;;;;;;;;;;;;19.14;46.44;101089.44;4964572;28;7114;-81
2022/07/16 00:28:43;;;;;;;;;;;;;;;19.11;46.01;101093.69;4910435;28;7391;-81
2022/07/16 00:31:10;;;;;;;;;;;;;;;19.08;46.08;101099.72;4956161;28;7173;-81
2022/07/16 00:33:35;;;;;;;;;;;;;;;19.05;45.99;101099.63;4913455;28;8642;-81
2022/07/16 00:36:01;;;;;;;;;;;;;;;19.01;46.12;101090.88;4942113;28;6948;-81
2022/07/16 00:38:27;;;;;;;;;;;;;;;18.97;45.79;101086.41;4962373;28;7059;-81
2022/07/16 00:40:52;;;;;;;;;;;;;;;18.93;46.46;101083.72;4961343;28;7191;-81
2022/07/16 00:43:18;;;;;;;;;;;;;;;18.87;46.75;101081.84;4929422;28;6924;-81
2022/07/16 00:45:44;;;;;;;;;;;;;;;18.81;46.78;101079.97;4904675;28;6951;-81
2022/07/16 00:48:11;;;;;;;;;;;;;;;18.77;46.87;101078.13;4941607;28;8735;-81
2022/07/16 00:50:38;;;;;;;;;;;;;;;18.74;46.98;101081.53;4938649;28;6959;-81
2022/07/16 00:53:09;;;;;;;;;;;;;;;18.69;46.65;101093.50;4915937;28;6957;-81
2022/07/16 00:55:35;;;;;;;;;;;;;;;18.66;46.85;101084.78;4928599;28;7190;-81
2022/07/16 00:58:01;;;;;;;;;;;;;;;18.61;46.62;101092.44;4915559;28;7174;-81
2022/07/16 01:00:29;;;;;;;;;;;;;;;18.57;46.42;101090.63;4955275;28;7114;-81
2022/07/16 01:02:56;;;;;;;;;;;;;;;18.54;46.90;101090.50;4943571;28;6985;-81
2022/07/16 01:05:21;;;;;;;;;;;;;;;18.51;46.78;101091.34;4924341;28;7308;-81
2022/07/16 01:07:47;;;;;;;;;;;;;;;18.48;47.02;101085.19;4929387;28;6944;-81
2022/07/16 01:10:14;;;;;;;;;;;;;;;18.49;46.91;101092.13;4937119;28;8443;-81
2022/07/16 01:12:40;;;;;;;;;;;;;;;18.49;46.91;101089.53;4939844;28;8559;-81
2022/07/16 01:15:07;;;;;;;;;;;;;;;18.48;46.85;101085.19;4925978;28;8116;-81
2022/07/16 01:17:33;;;;;;;;;;;;;;;18.48;47.06;101085.19;4944028;28;7038;-81
2022/07/16 01:19:58;;;;;;;;;;;;;;;18.46;47.00;101079.94;4924148;29;6960;-81
2022/07/16 01:22:25;;;;;;;;;;;;;;;18.46;46.92;101075.63;4925172;28;6965;-81
2022/07/16 01:24:53;;;;;;;;;;;;;;;18.49;47.14;101079.16;4955961;28;7253;-81
2022/07/16 01:27:20;;;;;;;;;;;;;;;18.49;47.47;101076.56;4928923;28;7232;-81
2022/07/16 01:29:47;;;;;;;;;;;;;;;18.49;47.03;101071.38;4915132;28;8814;-81
2022/07/16 01:32:13;;;;;;;;;;;;;;;18.46;47.31;101062.66;4935902;28;6969;-81
2022/07/16 01:34:39;;;;;;;;;;;;;;;18.41;46.93;101069.44;4936558;28;6958;-81
2022/07/16 01:37:08;;;;;;;;;;;;;;;18.35;47.10;101068.41;4925481;28;7213;-81
2022/07/16 01:39:38;;;;;;;;;;;;;;;18.29;47.43;101066.53;4941412;28;6979;-81
2022/07/16 01:42:06;;;;;;;;;;;;;;;18.24;47.94;101068.09;4939303;28;7187;-81
2022/07/16 01:44:34;;;;;;;;;;;;;;;18.18;48.03;101077.50;4921039;28;7188;-81
2022/07/16 01:47:03;;;;;;;;;;;;;;;18.15;47.90;101074.78;4943471;28;6959;-81
2022/07/16 01:49:35;;;;;;;;;;;;;;;18.12;47.80;101072.13;4940780;28;7047;-81
2022/07/16 01:52:20;;;;;;;;;;;;;;;18.08;48.62;101074.59;4923046;28;7405;-81
2022/07/16 01:54:53;;;;;;;;;;;;;;;18.07;48.15;101078.03;4912251;28;8678;-81
2022/07/16 01:57:20;;;;;;;;;;;;;;;18.05;48.50;101085.75;4928979;28;7445;-81
2022/07/16 01:59:47;;;;;;;;;;;;;;;18.01;48.54;101082.19;4955879;28;7118;-81
2022/07/16 02:02:13;;;;;;;;;;;;;;;17.99;47.98;101085.56;4931933;28;8058;-81
2022/07/16 02:04:41;;;;;;;;;;;;;;;17.96;47.90;101082.88;4924921;28;7822;-81
2022/07/16 02:07:07;;;;;;;;;;;;;;;17.93;48.69;101082.78;4923563;28;7244;-81
2022/07/16 02:09:34;;;;;;;;;;;;;;;17.88;48.58;101080.94;4912538;28;8455;-81
2022/07/16 02:12:00;;;;;;;;;;;;;;;17.91;48.36;101083.63;4930444;28;7231;-81
2022/07/16 02:14:25;;;;;;;;;;;;;;;17.91;48.29;101085.31;4913660;28;8728;-81
2022/07/16 02:16:51;;;;;;;;;;;;;;;17.91;48.70;101085.31;4942226;28;6945;-81
2022/07/16 02:19:17;;;;;;;;;;;;;;;17.91;49.09;101086.22;4960475;28;6792;-81
2022/07/16 02:21:43;;;;;;;;;;;;;;;17.89;48.89;101076.63;4945921;28;6964;-81
2022/07/16 02:24:08;;;;;;;;;;;;;;;17.93;49.16;101082.78;4929873;28;6960;-81
2022/07/16 02:26:34;;;;;;;;;;;;;;;17.96;48.93;101082.88;4956794;28;7287;-81
2022/07/16 02:29:00;;;;;;;;;;;;;;;17.98;49.36;101086.41;4926347;28;6817;-81
2022/07/16 02:31:26;;;;;;;;;;;;;;;18.01;48.96;101084.78;4957075;28;7836;-81
2022/07/16 02:33:51;;;;;;;;;;;;;;;18.07;49.01;101091.00;4928113;28;6944;-81
2022/07/16 02:36:17;;;;;;;;;;;;;;;18.12;48.82;101087.69;4942050;28;7155;-81
2022/07/16 02:38:43;;;;;;;;;;;;;;;18.18;49.39;101085.28;4931025;28;7088;-81
2022/07/16 02:41:09;;;;;;;;;;;;;;;18.25;48.99;101082.81;4947536;28;7291;-81
2022/07/16 02:43:34;;;;;;;;;;;;;;;18.32;49.19;101090.84;4936927;28;8479;-81
2022/07/16 02:46:00;;;;;;;;;;;;;;;18.40;49.27;101079.78;4929476;28;8760;-83
2022/07/16 02:48:26;;;;;;;;;;;;;;;18.48;49.07;101082.59;4916858;28;6967;-83
2022/07/16 02:50:51;;;;;;;;;;;;;;;18.57;49.14;101082.81;4953994;28;7188;-83
2022/07/16 02:53:17;;;;;;;;;;;;;;;18.66;48.88;101082.16;4925897;28;8651;-83
2022/07/16 02:55:43;;;;;;;;;;;;;;;18.74;48.60;101080.66;4942962;28;7203;-83
2022/07/16 02:58:08;;;;;;;;;;;;;;;18.82;48.25;101080.84;4937311;28;8372;-83
2022/07/16 03:00:34;;;;;;;;;;;;;;;18.86;48.58;101075.75;4940644;28;7292;-83
2022/07/16 03:03:00;;;;;;;;;;;;;;;18.92;48.01;101077.63;4924566;28;7199;-83
2022/07/16 03:05:26;;;;;;;;;;;;;;;18.96;48.12;101084.66;4924977;28;7395;-83
2022/07/16 03:07:52;;;;;;;;;;;;;;;18.97;47.66;101086.41;4919154;28;6969;-83
2022/07/16 03:10:18;;;;;;;;;;;;;;;18.96;47.82;101089.84;4934820;28;9358;-83
2022/07/16 03:12:44;;;;;;;;;;;;;;;18.95;47.88;101085.50;4957670;28;6788;-83
2022/07/16 03:15:12;;;;;;;;;;;;;;;18.97;48.29;101089.00;4916392;28;6979;-83
2022/07/16 03:17:39;;;;;;;;;;;;;;;18.99;48.01;101083.88;4928018;28;7247;-83
2022/07/16 03:20:06;;;;;;;;;;;;;;;19.04;48.11;101097.00;4908466;28;8458;-83
2022/07/16 03:22:32;;;;;;;;;;;;;;;19.07;47.76;101089.28;4931376;28;7469;-83
2022/07/16 03:24:57;;;;;;;;;;;;;;;19.08;47.70;101084.13;4945387;28;7168;-83
2022/07/16 03:27:23;;;;;;;;;;;;;;;19.11;47.70;101088.50;4940222;28;8661;-83
2022/07/16 03:29:49;;;;;;;;;;;;;;;19.10;47.56;101082.44;4955603;28;8605;-83
2022/07/16 03:32:14;;;;;;;;;;;;;;;19.12;47.61;101085.03;4940502;28;7048;-83
2022/07/16 03:34:40;;;;;;;;;;;;;;;19.15;47.70;101079.94;4958136;28;7181;-83
2022/07/16 03:37:06;;;;;;;;;;;;;;;19.13;47.71;101077.28;4955368;28;7350;-83
2022/07/16 03:39:31;;;;;;;;;;;;;;;19.17;47.25;101088.66;4919537;28;7362;-83
2022/07/16 03:41:57;;;;;;;;;;;;;;;19.15;47.54;101082.53;4946103;28;8441;-83
2022/07/16 03:44:23;;;;;;;;;;;;;;;19.13;46.98;101079.91;4943514;28;6966;-83
2022/07/16 03:46:48;;;;;;;;;;;;;;;19.12;47.22;101085.94;4929856;28;7021;-83
2022/07/16 03:49:14;;;;;;;;;;;;;;;19.12;47.74;101093.72;4909839;28;6988;-83
2022/07/16 03:51:40;;;;;;;;;;;;;;;19.08;47.22;101098.81;4914599;28;6967;-83
2022/07/16 03:54:06;;;;;;;;;;;;;;;19.04;47.38;101107.41;4912495;28;7197;-83
2022/07/16 03:56:32;;;;;;;;;;;;;;;18.97;47.27;101106.31;4922351;28;6784;-83
2022/07/16 03:58:58;;;;;;;;;;;;;;;18.94;47.06;101112.31;4929384;28;8436;-83
2022/07/16 04:01:24;;;;;;;;;;;;;;;18.89;47.17;101119.09;4961930;28;8769;-83
2022/07/16 04:03:50;;;;;;;;;;;;;;;18.86;47.82;101111.25;4936444;28;8404;-84
2022/07/16 04:06:16;;;;;;;;;;;;;;;18.84;47.57;101110.34;4928505;28;7118;-84
2022/07/16 04:08:42;;;;;;;;;;;;;;;18.83;47.52;101108.56;4924756;28;6988;-84
2022/07/16 04:11:08;;;;;;;;;;;;;;;18.82;48.17;101109.41;4929491;28;7021;-84
2022/07/16 04:13:37;;;;;;;;;;;;;;;18.85;47.66;101101.72;4924752;28;7245;-81
2022/07/16 04:16:04;;;;;;;;;;;;;;;18.90;47.53;101107.88;4925958;28;7290;-80
2022/07/16 04:18:30;;;;;;;;;;;;;;;18.95;48.12;101105.41;4940260;28;6987;-80
2022/07/16 04:20:56;;;;;;;;;;;;;;;18.98;47.93;101108.94;4935761;28;7018;-81
2022/07/16 04:23:21;;;;;;;;;;;;;;;19.04;47.91;101112.59;4920392;28;6981;-80
2022/07/16 04:25:47;;;;;;;;;;;;;;;19.08;47.32;101115.31;4948809;28;7217;-81
2022/07/16 04:28:13;;;;;;;;;;;;;;;19.12;47.11;101111.03;4914266;28;7290;-81
2022/07/16 04:30:38;;;;;;;;;;;;;;;19.14;47.47;101117.16;4955302;28;8495;-81
2022/07/16 04:33:04;;;;;;;;;;;;;;;19.18;47.40;101116.38;4956533;28;6788;-81
2022/07/16 04:35:30;;;;;;;;;;;;;;;19.20;47.50;101113.84;4944295;28;7246;-81
2022/07/16 04:37:55;;;;;;;;;;;;;;;19.21;47.47;101119.03;4949233;28;7315;-81
2022/07/16 04:40:21;;;;;;;;;;;;;;;19.23;47.55;101122.59;4943711;28;7323;-81
2022/07/16 04:42:47;;;;;;;;;;;;;;;19.26;47.13;101132.16;4936319;28;8433;-81
2022/07/16 04:45:13;;;;;;;;;;;;;;;19.28;47.40;101118.34;4954048;28;6777;-81
2022/07/16 04:47:40;;;;;;;;;;;;;;;19.31;47.33;101111.47;4922298;28;8488;-81
2022/07/16 04:50:07;;;;;;;;;;;;;;;19.33;47.27;101117.59;4939901;28;7145;-81
2022/07/16 04:52:33;;;;;;;;;;;;;;;19.36;46.91;101109.88;4936665;28;7244;-81
2022/07/16 04:55:00;;;;;;;;;;;;;;;19.37;47.16;101109.03;4953483;28;6792;-80
2022/07/16 04:57:26;;;;;;;;;;;;;;;19.38;47.14;101108.16;4940649;28;8700;-80
2022/07/16 04:59:52;;;;;;;;;;;;;;;19.42;47.08;101103.06;4927425;28;7236;-80
2022/07/16 05:05:04;;;;;;;;;;;;;;;19.52;46.91;101111.09;4928255;28;6793;-81
2022/07/16 05:07:29;;;;;;;;;;;;;;;19.56;46.64;101118.13;4912425;28;6965;-81
2022/07/16 05:09:55;;;;;;;;;;;;;;;19.60;46.95;101113.84;4939779;28;6974;-81
2022/07/16 05:12:21;;;;;;;;;;;;;;;19.64;46.58;101124.34;4921381;28;8417;-81
2022/07/16 05:14:47;;;;;;;;;;;;;;;19.74;46.80;101121.94;4913494;28;6978;-81
2022/07/16 05:17:12;;;;;;;;;;;;;;;19.85;46.68;101110.94;4940966;28;6983;-81
2022/07/16 05:19:38;;;;;;;;;;;;;;;19.96;46.41;101115.50;4956906;28;7254;-81
2022/07/16 05:22:05;;;;;;;;;;;;;;;20.05;46.14;101118.31;4927008;28;6784;-81
2022/07/16 05:24:32;;;;;;;;;;;;;;;20.12;46.21;101120.19;4954018;28;6812;-81
2022/07/16 05:26:58;;;;;;;;;;;;;;;20.22;46.26;101109.97;4948737;28;7105;-81
2022/07/16 05:29:24;;;;;;;;;;;;;;;20.33;46.09;101124.06;4918849;28;6824;-81
2022/07/16 05:31:50;;;;;;;;;;;;;;;20.44;46.35;101120.78;4954279;28;7145;-81
2022/07/16 05:34:16;;;;;;;;;;;;;;;20.61;46.27;101123.69;4919965;28;7040;-81
2022/07/16 05:36:42;;;;;;;;;;;;;;;20.75;45.84;101114.41;4939812;28;6925;-81
2022/07/16 05:39:07;;;;;;;;;;;;;;;20.86;45.78;101122.44;4936762;28;6979;-81
2022/07/16 05:41:33;;;;;;;;;;;;;;;21.00;45.10;101127.00;4946319;28;8438;-81
2022/07/16 05:44:00;;;;;;;;;;;;;;;21.07;44.80;101128.88;4947337;28;7220;-81
2022/07/16 05:46:26;;;;;;;;;;;;;;;21.17;45.13;101129.88;4945380;28;6982;-81
2022/07/16 05:48:52;;;;;;;;;;;;;;;21.26;44.79;101136.97;4939543;28;7892;-81
2022/07/16 05:51:17;;;;;;;;;;;;;;;21.34;44.69;101137.94;4921503;28;7987;-81
2022/07/16 05:53:43;;;;;;;;;;;;;;;21.45;44.85;101140.72;4939441;28;7156;-81
2022/07/16 05:56:08;;;;;;;;;;;;;;;21.56;44.79;101135.69;4937884;28;6966;-81
2022/07/16 05:58:34;;;;;;;;;;;;;;;21.69;44.77;101147.19;4951564;28;6928;-81
2022/07/16 06:01:00;;;;;;;;;;;;;;;21.77;44.83;101148.16;4920961;28;6780;-81
2022/07/16 06:03:26;;;;;;;;;;;;;;;21.88;44.27;101157.03;4922631;28;7290;-81
2022/07/16 06:05:52;;;;;;;;;;;;;;;21.99;44.28;101154.53;4918000;29;9072;-82
2022/07/16 06:08:18;;;;;;;;;;;;;;;22.10;43.86;101151.19;4922941;28;7003;-81
2022/07/16 06:10:44;;;;;;;;;;;;;;;22.17;43.75;101153.91;4924434;28;6838;-81
2022/07/16 06:13:10;;;;;;;;;;;;;;;22.24;43.96;101159.19;4913590;29;6965;-81
2022/07/16 06:15:36;;;;;;;;;;;;;;;22.28;43.71;101160.97;4954697;28;7107;-81
2022/07/16 06:18:02;;;;;;;;;;;;;;;22.33;43.67;101159.28;4954479;28;6920;-81
2022/07/16 06:20:28;;;;;;;;;;;;;;;22.37;43.50;101161.09;4955321;28;7182;-81
2022/07/16 06:22:56;;;;;;;;;;;;;;;22.41;43.36;101172.44;4949765;28;7267;-81
2022/07/16 06:25:23;;;;;;;;;;;;;;;22.44;43.66;101172.47;4924085;28;7215;-81
2022/07/16 06:27:48;;;;;;;;;;;;;;;22.48;43.49;101175.13;4940816;28;8514;-82
2022/07/16 06:30:14;;;;;;;;;;;;;;;22.53;43.55;101170.00;4939668;28;6957;-81
2022/07/16 06:32:40;;;;;;;;;;;;;;;22.61;43.57;101176.19;4958171;28;6937;-81
2022/07/16 06:35:07;;;;;;;;;;;;;;;22.73;43.98;101170.19;4956330;28;8429;-81
2022/07/16 06:37:32;;;;;;;;;;;;;;;22.92;43.65;101174.72;4923378;28;8536;-81
2022/07/16 06:39:58;;;;;;;;;;;;;;;23.09;43.36;101175.75;4941329;28;8341;-81
2022/07/16 06:42:24;;;;;;;;;;;;;;;23.25;43.38;101179.34;4940188;28;8691;-82
2022/07/16 06:44:49;;;;;;;;;;;;;;;23.43;43.00;101183.88;4939246;28;7103;-82
2022/07/16 06:47:15;;;;;;;;;;;;;;;23.67;43.06;101178.78;4930677;28;6820;-81
2022/07/16 06:49:40;;;;;;;;;;;;;;;23.85;42.95;101184.13;4924842;28;6951;-81
2022/07/16 06:52:07;;;;;;;;;;;;;;;23.96;42.33;101184.19;4912103;28;6951;-81
2022/07/16 06:54:32;;;;;;;;;;;;;;;24.02;42.47;101185.06;4946880;28;7056;-82
2022/07/16 06:56:58;;;;;;;;;;;;;;;24.05;42.51;101182.53;4957875;28;6780;-83
2022/07/16 06:59:24;;;;;;;;;;;;;;;24.09;42.65;101179.03;4925641;28;6773;-81
2022/07/16 07:01:49;;;;;;;;;;;;;;;24.18;42.63;101188.66;4915963;28;7290;-81
2022/07/16 07:04:15;;;;;;;;;;;;;;;24.32;42.81;101191.31;4950018;28;7051;-81
2022/07/16 07:06:41;;;;;;;;;;;;;;;24.46;42.12;101188.75;4911175;28;7247;-81
2022/07/16 07:09:06;;;;;;;;;;;;;;;24.61;41.76;101194.03;4931110;28;7898;-82
2022/07/16 07:11:32;;;;;;;;;;;;;;;24.73;42.07;101189.69;4943120;28;7180;-81
2022/07/16 07:13:58;;;;;;;;;;;;;;;24.94;41.81;101194.13;4916942;28;8478;-81
2022/07/16 07:16:23;;;;;;;;;;;;;;;25.17;41.66;101202.00;4944913;28;7234;-81
2022/07/16 07:18:49;;;;;;;;;;;;;;;25.47;41.81;101196.72;4910729;28;7279;-81
2022/07/16 07:21:14;;;;;;;;;;;;;;;25.81;41.26;101188.81;4930262;28;7039;-80
2022/07/16 07:23:40;;;;;;;;;;;;;;;26.22;40.98;101196.56;4940607;28;7009;-80
2022/07/16 07:26:06;;;;;;;;;;;;;;;26.57;39.98;101198.16;4942337;28;7281;-80
2022/07/16 07:28:32;;;;;;;;;;;;;;;26.86;39.95;101190.06;4953398;28;8402;-80
2022/07/16 07:30:57;;;;;;;;;;;;;;;27.02;39.33;101196.09;4934377;28;6944;-80
2022/07/16 07:33:26;;;;;;;;;;;;;;;27.17;38.87;101204.75;4925793;28;7005;-82
2022/07/16 07:35:53;;;;;;;;;;;;;;;27.21;38.30;101209.09;4948752;28;6808;-81
2022/07/16 07:38:18;;;;;;;;;;;;;;;27.21;38.53;101211.72;4906059;28;8931;-81
2022/07/16 07:40:44;;;;;;;;;;;;;;;27.29;38.47;101209.03;4925874;28;7250;-81
2022/07/16 07:43:10;;;;;;;;;;;;;;;27.43;38.33;101211.56;4943868;28;6932;-81
2022/07/16 07:45:36;;;;;;;;;;;;;;;27.61;38.13;101209.63;4950997;28;8840;-81
2022/07/16 07:48:01;;;;;;;;;;;;;;;27.81;37.88;101209.44;4957298;28;7060;-81
2022/07/16 07:50:27;;;;;;;;;;;;;;;27.93;37.33;101213.69;4960392;28;6967;-82
2022/07/16 07:52:52;;;;;;;;;;;;;;;27.94;36.91;101210.16;4936258;28;7128;-82
2022/07/16 07:55:20;;;;;;;;;;;;;;;27.94;37.35;101220.69;4947998;28;6933;-81
2022/07/16 07:57:45;;;;;;;;;;;;;;;27.96;37.03;101217.16;4964643;28;6995;-82
2022/07/16 08:00:12;;;;;;;;;;;;;;;27.93;36.94;101213.69;4950199;28;7444;-81
2022/07/16 08:02:42;;;;;;;;;;;;;;;27.90;36.99;101217.22;4931511;28;7433;-80
2022/07/16 08:05:09;;;;;;;;;;;;;;;27.93;36.57;101211.91;4945932;28;6792;-81
2022/07/16 08:07:35;;;;;;;;;;;;;;;28.00;36.86;101221.50;4935268;28;7170;-82
2022/07/16 08:10:03;;;;;;;;;;;;;;;27.91;37.21;101228.63;4957597;28;9092;-80
2022/07/16 08:12:28;;;;;;;;;;;;;;;27.74;36.81;101229.69;4919734;28;6995;-80
2022/07/16 08:14:54;;;;;;;;;;;;;;;27.55;37.42;101231.63;4934297;28;6768;-81
2022/07/16 08:17:19;;;;;;;;;;;;;;;27.46;36.88;101229.94;4946106;28;6924;-81
2022/07/16 08:19:45;;;;;;;;;;;;;;;27.49;37.30;101235.16;4917759;28;7242;-81
2022/07/16 08:22:11;;;;;;;;;;;;;;;27.56;37.16;101234.25;4962217;28;6967;-81
2022/07/16 08:27:21;;;;;;;;;;;;;;;28.14;37.68;101229.22;4950038;28;6808;-81
2022/07/16 08:29:46;;;;;;;;;;;;;;;28.58;36.92;101228.69;4949036;28;7165;-81
2022/07/16 08:32:12;;;;;;;;;;;;;;;28.74;36.62;101226.72;4927928;28;6777;-81
2022/07/16 08:34:37;;;;;;;;;;;;;;;28.86;35.96;101236.22;4946553;28;7102;-82
2022/07/16 08:37:10;;;;;;;;;;;;;;;28.92;35.88;101224.69;4948860;28;6976;-82
2022/07/16 08:39:44;;;;;;;;;;;;;;;28.95;35.63;101228.16;4914205;28;8496;-82
2022/07/16 08:42:13;;;;;;;;;;;;;;;28.85;35.19;101233.63;4930835;28;7239;-83
2022/07/16 08:44:40;;;;;;;;;;;;;;;28.57;35.17;101240.13;4910451;28;6992;-82
2022/07/16 08:47:10;;;;;;;;;;;;;;;28.25;35.88;101234.41;4918959;28;6979;-82
2022/07/16 08:49:38;;;;;;;;;;;;;;;27.94;36.03;101234.72;4928829;28;7894;-82
2022/07/16 08:52:07;;;;;;;;;;;;;;;27.97;36.49;101233.81;4909539;28;7031;-81
2022/07/16 08:54:33;;;;;;;;;;;;;;;28.30;36.74;101237.00;4931429;28;7702;-81
2022/07/16 08:57:00;;;;;;;;;;;;;;;28.54;35.84;101229.63;4949068;28;7277;-81
2022/07/16 08:59:27;;;;;;;;;;;;;;;28.52;36.05;101236.69;4926841;28;6808;-81
2022/07/16 09:01:53;;;;;;;;;;;;;;;28.38;35.70;101235.09;4940062;28;7579;-81
2022/07/16 09:04:19;;;;;;;;;;;;;;;28.14;35.79;101242.41;4961306;28;6781;-80
2022/07/16 09:06:46;;;;;;;;;;;;;;;27.95;35.49;101251.41;4923883;28;8694;-81
2022/07/16 09:09:13;;;;;;;;;;;;;;;27.73;35.73;101249.88;4922227;28;6990;-81
2022/07/16 09:11:39;;;;;;;;;;;;;;;27.80;36.00;101255.09;4940783;28;6864;-81
2022/07/16 09:14:10;;;;;;;;;;;;;;;28.20;36.44;101253.78;4913093;28;7192;-81
2022/07/16 09:16:42;;;;;;;;;;;;;;;28.54;34.74;101250.72;4928145;28;7151;-80
2022/07/16 09:19:16;;;;;;;;;;;;;;;28.39;34.20;101257.06;4939666;28;7443;-81
2022/07/16 09:22:19;;;;;;;;;;;;;;;27.96;34.54;101259.31;4947241;28;7245;-81
2022/07/16 09:24:47;;;;;;;;;;;;;;;27.56;35.22;101271.09;4914266;28;7001;-81
2022/07/16 09:27:27;;;;;;;;;;;;;;;27.56;35.88;101272.84;4946319;28;7150;-82
2022/07/16 09:30:02;;;;;;;;;;;;;;;28.04;36.17;101274.13;4937815;28;7367;-83
2022/07/16 09:32:36;;;;;;;;;;;;;;;28.74;35.49;101274.19;4957314;28;7256;-84
2022/07/16 09:35:09;;;;;;;;;;;;;;;29.50;35.07;101275.69;4938193;28;7057;-84
2022/07/16 09:37:54;;;;;;;;;;;;;;;30.12;34.01;101275.44;4941102;28;8093;-84
2022/07/16 09:40:43;;;;;;;;;;;;;;;30.20;33.05;101284.09;4944028;28;7368;-83
2022/07/16 09:43:15;;;;;;;;;;;;;;;29.97;33.24;101280.13;4941908;28;7323;-84
2022/07/16 09:45:57;;;;;;;;;;;;;;;29.83;33.62;101288.31;4946479;28;7040;-84
2022/07/16 09:48:29;;;;;;;;;;;;;;;30.24;33.06;101282.28;4948585;28;8348;-83
2022/07/16 09:51:11;;;;;;;;;;;;;;;30.84;32.78;101282.75;4946606;28;6976;-84
2022/07/16 09:53:43;;;;;;;;;;;;;;;30.80;31.66;101287.25;4958531;28;7160;-83
2022/07/16 09:56:16;;;;;;;;;;;;;;;30.34;32.17;101287.34;4949109;28;7002;-83
2022/07/16 09:58:49;;;;;;;;;;;;;;;30.31;32.81;101286.53;4914263;29;7312;-83
2022/07/16 10:01:16;;;;;;;;;;;;;;;30.70;31.43;101288.38;4920502;28;6995;-84
2022/07/16 10:03:44;;;;;;;;;;;;;;;31.20;31.13;101287.22;4934530;28;7187;-84
2022/07/16 10:06:11;;;;;;;;;;;;;;;31.94;30.76;101281.84;4942758;28;7253;-84
2022/07/16 10:08:38;;;;;;;;;;;;;;;32.76;30.34;101286.53;4911414;29;7049;-84
2022/07/16 10:11:04;;;;;;;;;;;;;;;33.38;28.95;101274.78;4932162;29;6993;-83
2022/07/16 10:13:34;;;;;;;;;;;;;;;33.59;27.36;101282.09;4947620;28;8106;-83
2022/07/16 10:16:00;;;;;;;;;;;;;;;33.00;26.20;101284.91;4926684;29;6992;-81
2022/07/16 10:18:46;;;;;;;;;;;;;;;32.36;27.14;101285.94;4961682;28;6800;-83
2022/07/16 10:21:21;;;;;;;;;;;;;;;32.32;27.58;101294.88;4898493;28;6857;-82
2022/07/16 10:24:09;;;;;;;;;;;;;;;32.57;27.20;101281.78;4954098;28;6799;-83
2022/07/16 10:26:35;;;;;;;;;;;;;;;33.05;27.36;101282.97;4950250;28;7129;-83
2022/07/16 10:29:04;;;;;;;;;;;;;;;33.63;26.66;101284.59;4947142;28;6989;-84
2022/07/16 10:31:33;;;;;;;;;;;;;;;34.14;25.98;101287.22;4930075;28;6796;-84
2022/07/16 10:34:14;;;;;;;;;;;;;;;34.48;25.02;101283.28;4951311;28;6979;-83
2022/07/16 10:36:55;;;;;;;;;;;;;;;34.65;25.16;101292.41;4961719;28;8433;-83
2022/07/16 10:39:27;;;;;;;;;;;;;;;34.59;24.51;101282.03;4916149;28;7043;-83
2022/07/16 10:42:03;;;;;;;;;;;;;;;34.14;24.70;101289.88;4922045;28;6978;-83
2022/07/16 10:44:48;;;;;;;;;;;;;;;33.39;25.17;101292.47;4950098;28;7295;-83
2022/07/16 10:47:17;;;;;;;;;;;;;;;33.24;25.06;101303.63;4926764;28;8527;-84
2022/07/16 10:49:44;;;;;;;;;;;;;;;33.48;24.89;101306.38;4963536;28;7159;-83
2022/07/16 10:52:18;;;;;;;;;;;;;;;33.96;24.73;101301.19;4961574;28;7222;-84
2022/07/16 10:54:50;;;;;;;;;;;;;;;34.40;24.28;101301.34;4921025;28;7032;-83
2022/07/16 10:57:17;;;;;;;;;;;;;;;34.22;24.17;101308.22;4931061;28;7327;-83
2022/07/16 10:59:47;;;;;;;;;;;;;;;34.29;24.56;101314.19;4930446;28;7100;-83
2022/07/16 11:02:18;;;;;;;;;;;;;;;34.60;23.59;101307.72;4934085;28;6784;-84
2022/07/16 11:04:47;;;;;;;;;;;;;;;34.83;22.51;101298.81;4936198;28;7013;-84
2022/07/16 11:07:20;;;;;;;;;;;;;;;34.99;22.14;101311.50;4917741;28;8379;-83
2022/07/16 11:09:50;;;;;;;;;;;;;;;34.95;21.81;101309.91;4947491;28;6984;-83
2022/07/16 11:12:24;;;;;;;;;;;;;;;34.96;22.36;101304.53;4952037;28;6919;-84
2022/07/16 11:14:56;;;;;;;;;;;;;;;34.91;22.06;101306.47;4920555;28;6861;-84
2022/07/16 11:17:27;;;;;;;;;;;;;;;34.49;22.44;101306.31;4959452;28;6975;-84
2022/07/16 11:19:56;;;;;;;;;;;;;;;34.41;22.29;101315.50;4962136;28;7254;-83
2022/07/16 11:22:28;;;;;;;;;;;;;;;34.44;22.35;101318.06;4932848;28;8516;-84
2022/07/16 11:24:59;;;;;;;;;;;;;;;34.36;22.24;101321.00;4919518;28;7172;-84
2022/07/16 11:27:33;;;;;;;;;;;;;;;33.92;22.18;101321.69;4937028;28;6800;-83
2022/07/16 11:30:18;;;;;;;;;;;;;;;33.37;22.61;101328.84;4935354;28;7059;-84
2022/07/16 11:32:46;;;;;;;;;;;;;;;33.44;23.03;101326.84;4962086;28;11403;-83
2022/07/16 11:35:13;;;;;;;;;;;;;;;33.45;22.62;101327.72;4950028;28;6966;-84
2022/07/16 11:37:57;;;;;;;;;;;;;;;33.25;22.81;101326.59;4931977;29;7236;-83
2022/07/16 11:40:41;;;;;;;;;;;;;;;33.41;22.89;101328.72;4935695;28;8356;-84
2022/07/16 11:43:06;;;;;;;;;;;;;;;33.79;23.10;101330.09;4960799;28;7317;-83
2022/07/16 11:45:42;;;;;;;;;;;;;;;34.36;21.61;101318.34;4952909;28;6970;-83
2022/07/16 11:48:17;;;;;;;;;;;;;;;34.50;21.44;101312.47;4943570;28;8082;-83
2022/07/16 11:50:46;;;;;;;;;;;;;;;34.65;22.06;101321.69;4926578;28;8467;-83
2022/07/16 11:53:12;;;;;;;;;;;;;;;34.99;21.90;101324.81;4928788;28;7269;-84
2022/07/16 11:55:45;;;;;;;;;;;;;;;35.44;21.71;101325.66;4916283;28;7239;-84
2022/07/16 11:58:17;;;;;;;;;;;;;;;35.56;21.04;101324.28;4916917;28;7001;-83
2022/07/16 12:00:46;;;;;;;;;;;;;;;35.27;20.41;101327.25;4919076;28;8455;-83
2022/07/16 12:03:13;;;;;;;;;;;;;;;34.85;20.94;101323.56;4917008;28;7165;-83
2022/07/16 12:05:38;;;;;;;;;;;;;;;34.61;20.80;101336.91;4960062;28;7217;-83
2022/07/16 12:08:05;;;;;;;;;;;;;;;34.14;21.25;101342.19;4933780;28;8343;-83
2022/07/16 12:10:30;;;;;;;;;;;;;;;33.49;21.38;101337.34;4927877;28;6993;-83
2022/07/16 12:13:05;;;;;;;;;;;;;;;32.96;21.99;101326.59;4937018;28;7233;-83
2022/07/16 12:15:58;;;;;;;;;;;;;;;32.93;22.06;101331.13;4919292;28;8714;-83
2022/07/16 12:18:24;;;;;;;;;;;;;;;33.08;22.33;101335.13;4920278;28;8474;-82
2022/07/16 12:20:54;;;;;;;;;;;;;;;32.69;22.43;101338.91;4960483;28;6793;-82
2022/07/16 12:23:37;;;;;;;;;;;;;;;32.00;22.97;101339.97;4936469;28;6828;-82
2022/07/16 12:26:05;;;;;;;;;;;;;;;31.64;23.57;101340.88;4919028;28;7000;-83
2022/07/16 12:28:32;;;;;;;;;;;;;;;31.49;23.79;101343.94;4954172;28;8393;-83
2022/07/16 12:31:05;;;;;;;;;;;;;;;31.67;23.72;101338.13;4933583;28;6816;-82
2022/07/16 12:33:32;;;;;;;;;;;;;;;32.07;24.00;101344.19;4950341;28;8747;-82
2022/07/16 12:36:03;;;;;;;;;;;;;;;32.54;23.26;101341.09;4947260;28;8485;-82
2022/07/16 12:38:55;;;;;;;;;;;;;;;32.77;23.09;101344.00;4936800;28;8535;-82
2022/07/16 12:41:39;;;;;;;;;;;;;;;32.41;22.60;101345.03;4961207;28;7215;-83
2022/07/16 12:44:16;;;;;;;;;;;;;;;32.06;23.61;101350.41;4951063;28;7018;-82
2022/07/16 12:46:51;;;;;;;;;;;;;;;32.22;23.23;101339.38;4942658;28;6824;-84
2022/07/16 12:49:26;;;;;;;;;;;;;;;32.66;23.65;101339.88;4948328;28;7243;-83
2022/07/16 12:51:56;;;;;;;;;;;;;;;32.81;22.86;101340.34;4913985;28;8834;-82
2022/07/16 12:54:23;;;;;;;;;;;;;;;32.71;22.90;101342.41;4917714;28;7212;-82
2022/07/16 12:59:36;;;;;;;;;;;;;;;32.34;22.87;101346.09;4938288;28;6797;-81
2022/07/16 13:02:07;;;;;;;;;;;;;;;32.23;23.10;101346.41;4944041;28;6961;-82
2022/07/16 13:04:33;;;;;;;;;;;;;;;32.13;23.31;101340.50;4948615;28;7964;-82